Time;durP1;ratioP1;P1;durP2;ratioP2;P2;SDS_P1;SDS_P2;PMS_P1;PMS_P2;Temp;Humidity;BMP_temperature;BMP_pressure;BME280_temperature;BME280_humidity;BME280_pressure;Samples;Min_cycle;Max_cycle;Signal;HPM_P1;HPM_P2
2022/12/12 00:00:39;;;;;;;;;;;18.90;32.50;;;;;;5095421;28;19924;-68
2022/12/12 00:03:05;;;;;;;;;;;19.00;32.60;;;;;;5077948;28;20323;-68
2022/12/12 00:05:30;;;;;;;;;;;18.90;32.50;;;;;;5095937;28;19924;-68
2022/12/12 00:07:56;;;;;;;;;;;19.00;32.50;;;;;;5077863;28;19938;-68
2022/12/12 00:10:21;;;;;;;;;;;19.00;32.40;;;;;;5078019;28;19920;-68
2022/12/12 00:12:47;;;;;;;;;;;19.00;32.40;;;;;;5077658;28;20015;-68
2022/12/12 00:15:12;;;;;;;;;;;19.10;32.50;;;;;;5095753;28;19971;-68
2022/12/12 00:17:38;;;;;;;;;;;19.00;32.40;;;;;;5077637;28;19920;-68
2022/12/12 00:20:04;;;;;;;;;;;19.10;32.50;;;;;;5095741;28;20014;-68
2022/12/12 00:22:30;;;;;;;;;;;19.10;32.50;;;;;;5095689;28;20375;-68
2022/12/12 00:24:55;;;;;;;;;;;19.00;32.40;;;;;;5073996;28;20019;-69
2022/12/12 00:27:21;;;;;;;;;;;19.00;32.40;;;;;;5074041;28;19966;-68
2022/12/12 00:29:50;;;;;;;;;;;19.00;32.50;;;;;;5075224;28;19977;-68
2022/12/12 00:32:16;;;;;;;;;;;19.00;32.50;;;;;;5074242;28;19951;-68
2022/12/12 00:34:42;;;;;;;;;;;19.00;32.50;;;;;;5073874;28;19920;-68
2022/12/12 00:37:07;;;;;;;;;;;19.00;32.50;;;;;;5073827;28;19921;-68
2022/12/12 00:39:33;;;;;;;;;;;18.90;32.50;;;;;;5073884;28;19967;-68
2022/12/12 00:41:58;;;;;;;;;;;18.90;32.50;;;;;;5074013;28;19920;-68
2022/12/12 00:44:24;;;;;;;;;;;18.90;32.60;;;;;;5073970;28;20039;-68
2022/12/12 00:46:49;;;;;;;;;;;18.90;32.60;;;;;;5074995;28;19927;-69
2022/12/12 00:49:15;;;;;;;;;;;18.90;32.60;;;;;;5073875;28;19924;-68
2022/12/12 00:51:42;;;;;;;;;;;18.90;32.50;;;;;;5074870;28;19967;-69
2022/12/12 00:54:08;;;;;;;;;;;18.90;32.60;;;;;;5074802;28;19927;-68
2022/12/12 00:56:34;;;;;;;;;;;18.80;32.50;;;;;;5074577;28;19946;-68
2022/12/12 00:59:01;;;;;;;;;;;18.80;32.60;;;;;;5073131;28;20007;-68
2022/12/12 01:01:28;;;;;;;;;;;18.90;32.60;;;;;;5073753;28;19931;-68
2022/12/12 01:03:53;;;;;;;;;;;18.80;32.50;;;;;;5073249;28;19920;-68
2022/12/12 01:06:19;;;;;;;;;;;18.80;32.50;;;;;;5073317;28;20054;-68
2022/12/12 01:08:45;;;;;;;;;;;18.90;32.60;;;;;;5074694;28;20009;-68
2022/12/12 01:11:12;;;;;;;;;;;18.80;32.50;;;;;;5074544;28;19920;-68
2022/12/12 01:13:37;;;;;;;;;;;18.90;32.50;;;;;;5074364;28;19920;-68
2022/12/12 01:16:04;;;;;;;;;;;18.80;32.50;;;;;;5074413;28;20486;-68
2022/12/12 01:18:29;;;;;;;;;;;18.90;32.50;;;;;;5073928;28;19921;-68
2022/12/12 01:20:55;;;;;;;;;;;18.80;32.50;;;;;;5072972;28;20014;-68
2022/12/12 01:23:20;;;;;;;;;;;18.80;32.50;;;;;;5073291;28;19970;-68
2022/12/12 01:25:46;;;;;;;;;;;18.80;32.50;;;;;;5071850;28;19955;-68
2022/12/12 01:28:12;;;;;;;;;;;18.80;32.50;;;;;;5072725;28;19973;-68
2022/12/12 01:30:37;;;;;;;;;;;18.90;32.50;;;;;;5074252;28;19920;-68
2022/12/12 01:33:03;;;;;;;;;;;18.90;32.50;;;;;;5074115;28;20357;-68
2022/12/12 01:35:29;;;;;;;;;;;18.90;32.40;;;;;;5072759;28;19927;-68
2022/12/12 01:37:55;;;;;;;;;;;18.90;32.40;;;;;;5073876;28;20336;-68
2022/12/12 01:40:22;;;;;;;;;;;18.90;32.30;;;;;;5073550;28;19974;-68
2022/12/12 01:42:48;;;;;;;;;;;19.00;32.40;;;;;;5072935;28;19920;-68
2022/12/12 01:45:33;;;;;;;;;;;18.90;32.30;;;;;;5073752;28;19924;-68
2022/12/12 01:47:58;;;;;;;;;;;18.90;33.10;;;;;;5072606;28;19952;-68
2022/12/12 01:50:24;;;;;;;;;;;18.90;32.40;;;;;;5072775;28;19990;-68
2022/12/12 01:52:49;;;;;;;;;;;19.00;32.40;;;;;;5072773;28;20015;-68
2022/12/12 01:55:19;;;;;;;;;;;19.00;32.40;;;;;;5072696;28;19944;-68
2022/12/12 01:57:46;;;;;;;;;;;18.90;32.30;;;;;;5073700;28;19920;-68
2022/12/12 02:00:12;;;;;;;;;;;18.90;32.30;;;;;;5072508;28;19928;-69
2022/12/12 02:02:40;;;;;;;;;;;18.90;32.30;;;;;;5072693;28;19921;-68
2022/12/12 02:05:13;;;;;;;;;;;18.90;32.30;;;;;;5072133;28;19928;-68
2022/12/12 02:07:38;;;;;;;;;;;18.90;32.30;;;;;;5073483;28;19928;-68
2022/12/12 02:10:04;;;;;;;;;;;18.90;32.40;;;;;;5071563;28;19920;-69
2022/12/12 02:12:30;;;;;;;;;;;18.90;32.30;;;;;;5072050;28;19928;-68
2022/12/12 02:14:55;;;;;;;;;;;18.90;32.30;;;;;;5071971;28;19966;-68
2022/12/12 02:20:20;;;;;;;;;;;18.90;32.30;;;;;;5121043;27;2044970;-68
2022/12/12 02:33:37;;;;;;;;;;;19.00;32.30;;;;;;5089934;28;20273;-69
2022/12/12 02:36:23;;;;;;;;;;;18.90;32.30;;;;;;5088459;28;20391;-68
2022/12/12 02:38:52;;;;;;;;;;;18.90;32.30;;;;;;5089711;28;19927;-68
2022/12/12 02:41:37;;;;;;;;;;;18.90;33.20;;;;;;5088416;28;19928;-68
2022/12/12 02:44:23;;;;;;;;;;;18.90;32.40;;;;;;5088491;28;20318;-68
2022/12/12 02:46:56;;;;;;;;;;;18.90;32.40;;;;;;5088122;28;19927;-69
2022/12/12 02:52:02;;;;;;;;;;;18.90;32.40;;;;;;5131741;27;1861802;-68
2022/12/12 02:54:27;;;;;;;;;;;18.90;32.40;;;;;;5193254;27;19970;-68
2022/12/12 02:56:54;;;;;;;;;;;18.90;32.40;;;;;;5174661;27;19919;-69
2022/12/12 02:59:23;;;;;;;;;;;18.90;32.40;;;;;;5174332;27;20429;-70
2022/12/12 03:07:47;;;;;;;;;;;18.90;32.30;;;;;;5108439;28;19969;-68
2022/12/12 03:15:47;;;;;;;;;;;19.00;32.30;;;;;;5089916;28;20294;-68
2022/12/12 03:18:21;;;;;;;;;;;19.00;32.20;;;;;;5088791;28;19921;-68
2022/12/12 03:21:01;;;;;;;;;;;19.00;32.20;;;;;;5089894;28;19921;-68
2022/12/12 03:23:29;;;;;;;;;;;19.00;32.10;;;;;;5088785;28;19920;-69
2022/12/12 03:26:01;;;;;;;;;;;19.10;32.10;;;;;;5088785;28;19966;-68
2022/12/12 03:28:46;;;;;;;;;;;19.10;32.00;;;;;;5088670;28;19924;-68
2022/12/12 03:31:13;;;;;;;;;;;19.20;32.00;;;;;;5105373;28;20299;-68
2022/12/12 03:33:42;;;;;;;;;;;19.20;31.90;;;;;;5105446;28;20015;-69
2022/12/12 03:36:12;;;;;;;;;;;19.20;31.80;;;;;;5088543;28;19920;-68
2022/12/12 03:38:40;;;;;;;;;;;19.30;31.80;;;;;;5088194;28;19927;-68
2022/12/12 03:41:08;;;;;;;;;;;19.30;31.70;;;;;;5088491;28;20011;-69
2022/12/12 03:43:36;;;;;;;;;;;19.30;31.70;;;;;;5105322;28;19970;-68
2022/12/12 03:46:21;;;;;;;;;;;19.40;31.90;;;;;;5089635;28;19927;-68
2022/12/12 03:48:49;;;;;;;;;;;19.40;31.70;;;;;;5089058;28;19973;-68
2022/12/12 03:51:21;;;;;;;;;;;19.40;31.60;;;;;;5105293;28;19974;-69
2022/12/12 03:59:18;;;;;;;;;;;19.30;31.60;;;;;;5089866;28;19912;-68
2022/12/12 04:01:48;;;;;;;;;;;19.30;31.60;;;;;;5087887;28;20364;-69
2022/12/12 04:04:22;;;;;;;;;;;19.30;31.70;;;;;;5088434;28;19920;-68
2022/12/12 04:06:53;;;;;;;;;;;19.30;31.70;;;;;;5088435;28;20015;-69
2022/12/12 04:15:02;;;;;;;;;;;19.20;31.70;;;;;;5088428;28;19994;-68
2022/12/12 04:17:31;;;;;;;;;;;19.20;31.80;;;;;;5088438;28;19935;-68
2022/12/12 04:23:22;;;;;;;;;;;19.10;31.80;;;;;;5089346;28;19924;-68
2022/12/12 04:28:20;;;;;;;;;;;19.10;31.80;;;;;;5089807;28;19912;-69
2022/12/12 04:30:45;;;;;;;;;;;19.10;31.80;;;;;;5088620;28;19942;-68
2022/12/12 04:33:13;;;;;;;;;;;19.10;31.80;;;;;;5088905;28;19920;-68
2022/12/12 04:35:42;;;;;;;;;;;19.10;31.90;;;;;;5088453;28;19920;-69
2022/12/12 04:38:10;;;;;;;;;;;19.10;31.90;;;;;;5088421;28;19932;-68
2022/12/12 04:40:39;;;;;;;;;;;19.10;31.80;;;;;;5088394;28;19924;-69
2022/12/12 04:43:07;;;;;;;;;;;19.10;31.80;;;;;;5088655;28;19927;-69
2022/12/12 04:45:34;;;;;;;;;;;19.10;31.80;;;;;;5089595;28;19939;-69
2022/12/12 04:48:02;;;;;;;;;;;19.10;31.80;;;;;;5088155;28;19924;-68
2022/12/12 04:50:28;;;;;;;;;;;19.20;31.70;;;;;;5088527;28;19920;-68
2022/12/12 04:52:55;;;;;;;;;;;19.20;31.70;;;;;;5088391;28;19921;-68
2022/12/12 04:55:23;;;;;;;;;;;19.20;31.70;;;;;;5088350;28;19938;-68
2022/12/12 04:57:53;;;;;;;;;;;19.20;31.70;;;;;;5088638;28;19920;-68
2022/12/12 05:00:20;;;;;;;;;;;19.20;31.70;;;;;;5087764;28;20368;-68
2022/12/12 05:02:50;;;;;;;;;;;19.10;31.70;;;;;;5088254;28;19924;-69
2022/12/12 05:05:18;;;;;;;;;;;19.20;31.70;;;;;;5088040;28;19920;-68
2022/12/12 05:07:47;;;;;;;;;;;19.20;31.70;;;;;;5089069;28;20383;-68
2022/12/12 05:10:14;;;;;;;;;;;19.20;31.60;;;;;;5089055;28;20374;-68
2022/12/12 05:12:42;;;;;;;;;;;19.20;31.60;;;;;;5089046;28;19974;-68
2022/12/12 05:15:08;;;;;;;;;;;19.20;31.60;;;;;;5087941;28;19932;-68
2022/12/12 05:17:39;;;;;;;;;;;19.20;31.60;;;;;;5087995;28;19921;-69
2022/12/12 05:20:04;;;;;;;;;;;19.20;31.50;;;;;;5088833;28;20350;-69
2022/12/12 05:22:30;;;;;;;;;;;19.20;31.50;;;;;;5088896;28;19971;-68
2022/12/12 05:24:55;;;;;;;;;;;19.20;31.50;;;;;;5088047;28;19924;-69
2022/12/12 05:27:21;;;;;;;;;;;19.20;31.50;;;;;;5087073;28;19928;-68
2022/12/12 05:29:46;;;;;;;;;;;19.20;31.50;;;;;;5087480;28;20380;-69
2022/12/12 05:32:12;;;;;;;;;;;19.20;31.50;;;;;;5088692;28;19921;-68
2022/12/12 05:34:37;;;;;;;;;;;19.20;31.50;;;;;;5087802;28;20283;-68
2022/12/12 05:37:03;;;;;;;;;;;19.20;31.50;;;;;;5088453;28;19920;-69
2022/12/12 05:39:28;;;;;;;;;;;19.20;31.50;;;;;;5075120;28;19928;-68
2022/12/12 05:41:54;;;;;;;;;;;19.20;31.50;;;;;;5073722;28;19921;-68
2022/12/12 05:44:20;;;;;;;;;;;19.20;31.50;;;;;;5074048;28;19928;-68
2022/12/12 05:46:45;;;;;;;;;;;19.20;31.50;;;;;;5074271;28;20283;-68
2022/12/12 05:49:11;;;;;;;;;;;19.20;31.50;;;;;;5073974;28;20327;-68
2022/12/12 05:51:36;;;;;;;;;;;19.30;31.50;;;;;;5073511;28;19920;-69
2022/12/12 05:54:02;;;;;;;;;;;19.30;31.50;;;;;;5073861;28;19924;-68
2022/12/12 05:56:27;;;;;;;;;;;19.20;31.40;;;;;;5073444;28;19920;-68
2022/12/12 05:58:53;;;;;;;;;;;19.20;31.40;;;;;;5073799;28;19921;-68
2022/12/12 06:01:18;;;;;;;;;;;19.20;31.40;;;;;;5074784;28;19968;-68
2022/12/12 06:03:44;;;;;;;;;;;19.20;31.40;;;;;;5073675;28;19959;-69
2022/12/12 06:06:09;;;;;;;;;;;19.20;31.40;;;;;;5074630;28;19921;-70
2022/12/12 06:08:35;;;;;;;;;;;19.30;31.40;;;;;;5073201;28;19928;-68
2022/12/12 06:11:03;;;;;;;;;;;19.20;31.40;;;;;;5074804;28;19943;-68
2022/12/12 06:13:29;;;;;;;;;;;19.20;31.40;;;;;;5073110;28;19920;-68
2022/12/12 06:15:54;;;;;;;;;;;19.20;31.40;;;;;;5073136;28;19921;-68
2022/12/12 06:18:20;;;;;;;;;;;19.20;31.40;;;;;;5073390;28;19943;-68
2022/12/12 06:20:45;;;;;;;;;;;19.20;31.40;;;;;;5073098;28;20309;-69
2022/12/12 06:23:11;;;;;;;;;;;19.30;31.40;;;;;;5073186;28;19920;-68
2022/12/12 06:25:36;;;;;;;;;;;19.20;31.40;;;;;;5074218;28;20051;-68
2022/12/12 06:28:02;;;;;;;;;;;19.20;31.40;;;;;;5072570;28;19928;-68
2022/12/12 06:30:27;;;;;;;;;;;19.20;31.40;;;;;;5074126;28;19920;-68
2022/12/12 06:32:53;;;;;;;;;;;19.20;31.40;;;;;;5072569;28;20292;-68
2022/12/12 06:35:18;;;;;;;;;;;19.20;31.30;;;;;;5072192;28;19921;-69
2022/12/12 06:37:44;;;;;;;;;;;19.40;31.50;;;;;;5072383;28;19920;-69
2022/12/12 06:40:10;;;;;;;;;;;19.50;31.40;;;;;;5071515;28;20401;-67
2022/12/12 06:42:35;;;;;;;;;;;19.90;31.30;;;;;;5071990;28;20015;-67
2022/12/12 06:45:01;;;;;;;;;;;20.20;31.20;;;;;;5070651;28;20415;-67
2022/12/12 06:47:27;;;;;;;;;;;20.60;31.30;;;;;;5069147;28;19928;-68
2022/12/12 06:49:52;;;;;;;;;;;21.00;31.00;;;;;;5068915;28;19927;-68
2022/12/12 06:52:18;;;;;;;;;;;21.30;30.90;;;;;;5070130;28;19928;-65
2022/12/12 06:54:43;;;;;;;;;;;21.60;30.90;;;;;;5069728;28;19924;-67
2022/12/12 06:57:08;;;;;;;;;;;21.80;30.70;;;;;;5070283;28;19921;-65
2022/12/12 06:59:34;;;;;;;;;;;22.00;30.60;;;;;;5070149;28;19994;-65
2022/12/12 07:01:59;;;;;;;;;;;22.20;30.40;;;;;;5068733;28;20364;-68
2022/12/12 07:04:25;;;;;;;;;;;22.40;30.30;;;;;;5065999;28;19924;-73
2022/12/12 07:06:51;;;;;;;;;;;22.70;30.20;;;;;;5064029;28;19974;-73
2022/12/12 07:09:18;;;;;;;;;;;22.90;30.00;;;;;;5062828;28;19982;-71
2022/12/12 07:11:43;;;;;;;;;;;22.90;29.90;;;;;;5062424;28;19932;-69
2022/12/12 07:14:09;;;;;;;;;;;23.10;29.80;;;;;;5056207;28;19936;-70
2022/12/12 07:16:35;;;;;;;;;;;23.20;29.50;;;;;;5056907;28;19932;-72
2022/12/12 07:19:00;;;;;;;;;;;23.40;29.30;;;;;;5050137;28;19970;-70
2022/12/12 07:21:26;;;;;;;;;;;23.60;29.30;;;;;;5050723;28;20753;-70
2022/12/12 07:23:51;;;;;;;;;;;23.50;29.10;;;;;;5046299;28;19964;-70
2022/12/12 07:26:20;;;;;;;;;;;23.30;29.30;;;;;;5055223;28;19939;-69
2022/12/12 07:28:46;;;;;;;;;;;23.00;29.50;;;;;;5048955;28;20007;-70
2022/12/12 07:31:13;;;;;;;;;;;22.80;29.80;;;;;;5055866;28;19970;-73
2022/12/12 07:33:38;;;;;;;;;;;22.60;30.00;;;;;;5053844;28;20388;-73
2022/12/12 07:36:04;;;;;;;;;;;22.40;30.20;;;;;;5060038;28;19930;-73
2022/12/12 07:38:30;;;;;;;;;;;22.40;30.20;;;;;;5051853;28;19924;-73
2022/12/12 07:41:01;;;;;;;;;;;22.40;30.30;;;;;;5052191;28;20396;-73
2022/12/12 07:43:26;;;;;;;;;;;22.40;30.30;;;;;;5052589;28;20050;-73
2022/12/12 07:45:51;;;;;;;;;;;22.50;30.30;;;;;;5053192;28;20427;-69
2022/12/12 07:48:17;;;;;;;;;;;22.50;30.30;;;;;;5050983;28;19931;-72
2022/12/12 07:50:43;;;;;;;;;;;22.40;30.10;;;;;;5050721;28;20026;-72
2022/12/12 07:53:08;;;;;;;;;;;22.40;30.30;;;;;;5051367;28;19935;-72
2022/12/12 07:55:34;;;;;;;;;;;22.20;30.60;;;;;;5050558;28;20015;-73
2022/12/12 07:57:59;;;;;;;;;;;22.10;31.00;;;;;;5051711;28;20403;-73
2022/12/12 08:00:25;;;;;;;;;;;22.10;31.20;;;;;;5052363;28;20612;-74
2022/12/12 08:02:50;;;;;;;;;;;22.10;32.00;;;;;;5046323;28;20772;-78
2022/12/12 08:05:16;;;;;;;;;;;22.20;31.00;;;;;;5049089;28;19924;-77
2022/12/12 08:07:42;;;;;;;;;;;22.30;30.90;;;;;;5060633;28;19933;-75
2022/12/12 08:10:07;;;;;;;;;;;22.50;30.80;;;;;;5048556;28;19924;-72
2022/12/12 08:12:33;;;;;;;;;;;22.60;30.50;;;;;;5065847;28;19932;-77
2022/12/12 08:14:58;;;;;;;;;;;22.70;30.50;;;;;;5046286;28;19925;-73
2022/12/12 08:17:24;;;;;;;;;;;22.70;30.30;;;;;;5059914;28;19975;-73
2022/12/12 08:19:50;;;;;;;;;;;23.00;30.30;;;;;;5054898;28;20000;-74
2022/12/12 08:22:15;;;;;;;;;;;22.90;30.50;;;;;;5044731;28;19928;-68
2022/12/12 08:24:41;;;;;;;;;;;22.90;30.70;;;;;;5049440;28;19993;-68
2022/12/12 08:27:06;;;;;;;;;;;22.80;30.70;;;;;;5048967;28;19931;-64
2022/12/12 08:29:32;;;;;;;;;;;22.80;30.90;;;;;;5050592;28;19925;-73
2022/12/12 08:31:57;;;;;;;;;;;22.60;30.90;;;;;;5051602;28;19924;-69
2022/12/12 08:34:23;;;;;;;;;;;22.40;31.10;;;;;;5047783;28;19931;-70
2022/12/12 08:36:49;;;;;;;;;;;22.30;31.50;;;;;;5053304;28;19925;-70
2022/12/12 08:39:15;;;;;;;;;;;22.00;31.80;;;;;;5046104;28;19924;-73
2022/12/12 08:41:42;;;;;;;;;;;21.90;32.30;;;;;;5051707;28;20333;-65
2022/12/12 08:44:09;;;;;;;;;;;21.70;32.60;;;;;;5051982;28;19973;-72
2022/12/12 08:46:35;;;;;;;;;;;21.60;32.80;;;;;;5051282;28;19948;-73
2022/12/12 08:49:00;;;;;;;;;;;21.70;33.10;;;;;;5049976;28;19947;-65
2022/12/12 08:51:26;;;;;;;;;;;21.70;33.30;;;;;;5050953;28;20270;-71
2022/12/12 08:53:52;;;;;;;;;;;21.80;33.50;;;;;;5049099;28;19994;-72
2022/12/12 08:56:19;;;;;;;;;;;21.80;33.60;;;;;;5048307;28;19924;-72
2022/12/12 08:58:45;;;;;;;;;;;22.00;33.70;;;;;;5055234;28;19936;-73
2022/12/12 09:01:11;;;;;;;;;;;22.20;33.50;;;;;;5042732;28;19925;-75
2022/12/12 09:03:37;;;;;;;;;;;22.30;33.30;;;;;;5049056;28;19924;-69
2022/12/12 09:06:03;;;;;;;;;;;22.50;33.00;;;;;;5067832;28;19924;-78
2022/12/12 09:08:29;;;;;;;;;;;22.70;32.50;;;;;;5049132;28;19979;-65
2022/12/12 09:10:54;;;;;;;;;;;22.90;32.20;;;;;;5051052;28;20788;-71
2022/12/12 09:13:20;;;;;;;;;;;23.00;32.20;;;;;;5048045;28;19925;-66
2022/12/12 09:15:48;;;;;;;;;;;22.80;32.40;;;;;;5070349;28;19924;-67
2022/12/12 09:18:14;;;;;;;;;;;22.70;32.60;;;;;;5056309;28;20586;-67
2022/12/12 09:20:39;;;;;;;;;;;22.70;32.60;;;;;;5055082;28;19920;-73
2022/12/12 09:23:05;;;;;;;;;;;22.80;32.60;;;;;;5066212;28;19962;-70
2022/12/12 09:25:30;;;;;;;;;;;22.70;32.70;;;;;;5051914;28;19975;-68
2022/12/12 09:27:57;;;;;;;;;;;22.60;32.90;;;;;;5072170;28;19925;-70
2022/12/12 09:30:22;;;;;;;;;;;22.50;32.90;;;;;;5060509;28;20335;-67
2022/12/12 09:32:49;;;;;;;;;;;22.40;33.10;;;;;;5059053;28;19978;-68
2022/12/12 09:35:14;;;;;;;;;;;22.40;33.30;;;;;;5058349;28;19928;-67
2022/12/12 09:37:40;;;;;;;;;;;22.30;33.40;;;;;;5074456;28;20490;-68
2022/12/12 09:40:06;;;;;;;;;;;21.90;32.70;;;;;;5072989;28;19924;-70
2022/12/12 09:42:32;;;;;;;;;;;21.50;32.90;;;;;;5075447;28;19927;-68
2022/12/12 09:45:01;;;;;;;;;;;21.50;33.20;;;;;;5074792;28;20331;-69
2022/12/12 09:47:33;;;;;;;;;;;21.50;33.30;;;;;;5071525;28;19928;-71
2022/12/12 09:50:02;;;;;;;;;;;21.50;33.20;;;;;;5056364;28;20469;-70
2022/12/12 09:52:31;;;;;;;;;;;21.60;33.00;;;;;;5072515;28;19924;-70
2022/12/12 09:54:57;;;;;;;;;;;21.70;32.80;;;;;;5067571;28;20458;-69
2022/12/12 09:57:43;;;;;;;;;;;21.80;32.60;;;;;;5056782;28;20813;-70
2022/12/12 10:00:10;;;;;;;;;;;21.90;32.50;;;;;;5071386;28;19959;-71
2022/12/12 10:08:27;;;;;;;;;;;22.10;31.90;;;;;;5071288;28;19931;-71
2022/12/12 10:10:57;;;;;;;;;;;22.10;31.80;;;;;;5073390;28;20022;-70
2022/12/12 10:13:24;;;;;;;;;;;22.20;31.70;;;;;;5069533;28;19933;-68
2022/12/12 10:15:52;;;;;;;;;;;22.20;31.50;;;;;;5060167;28;19932;-70
2022/12/12 10:21:00;;;;;;;;;;;22.30;31.40;;;;;;5071992;27;20273;-67
2022/12/12 10:26:10;;;;;;;;;;;22.30;31.40;;;;;;5077660;27;19924;-70
2022/12/12 10:28:35;;;;;;;;;;;22.20;31.30;;;;;;5075682;28;19928;-73
2022/12/12 10:31:21;;;;;;;;;;;22.20;31.40;;;;;;5074430;28;19931;-73
2022/12/12 10:36:46;;;;;;;;;;;21.90;32.50;;;;;;5081843;27;19942;-73
2022/12/12 10:42:19;;;;;;;;;;;21.80;33.20;;;;;;5070800;27;20029;-71
2022/12/12 10:45:05;;;;;;;;;;;21.70;33.40;;;;;;5058493;28;20415;-66
2022/12/12 10:47:32;;;;;;;;;;;21.80;33.70;;;;;;5052747;28;19924;-67
2022/12/12 10:50:01;;;;;;;;;;;21.80;33.70;;;;;;5051885;28;19921;-71
2022/12/12 10:52:26;;;;;;;;;;;21.80;33.70;;;;;;5053851;28;19925;-67
2022/12/12 10:54:55;;;;;;;;;;;22.00;33.70;;;;;;5042172;28;19936;-69
2022/12/12 10:57:23;;;;;;;;;;;22.10;33.40;;;;;;5076744;28;20101;-72
2022/12/12 10:59:53;;;;;;;;;;;22.30;33.20;;;;;;5042963;28;19925;-68
2022/12/12 11:02:21;;;;;;;;;;;22.50;32.90;;;;;;5052916;28;19924;-67
2022/12/12 11:04:47;;;;;;;;;;;22.70;32.70;;;;;;5048924;28;20428;-67
2022/12/12 11:07:18;;;;;;;;;;;22.80;32.30;;;;;;5052067;28;19935;-66
2022/12/12 11:09:44;;;;;;;;;;;22.90;32.10;;;;;;5052001;28;19924;-66
2022/12/12 11:12:12;;;;;;;;;;;22.90;32.10;;;;;;5080715;28;19948;-67
2022/12/12 11:14:40;;;;;;;;;;;22.90;32.20;;;;;;5083290;28;19932;-66
2022/12/12 11:17:23;;;;;;;;;;;22.80;32.10;;;;;;5053695;28;19966;-67
2022/12/12 11:19:50;;;;;;;;;;;22.70;32.20;;;;;;5055204;28;20426;-69
2022/12/12 11:22:16;;;;;;;;;;;22.50;32.40;;;;;;5053523;28;19933;-69
2022/12/12 11:24:44;;;;;;;;;;;22.10;33.00;;;;;;5049369;28;19924;-64
2022/12/12 11:27:18;;;;;;;;;;;21.80;33.50;;;;;;5057599;28;20029;-65
2022/12/12 11:29:45;;;;;;;;;;;21.60;34.00;;;;;;5052221;28;19931;-69
2022/12/12 11:32:12;;;;;;;;;;;21.40;34.30;;;;;;5079939;28;19948;-69
2022/12/12 11:34:38;;;;;;;;;;;21.30;34.40;;;;;;5050113;28;20391;-71
2022/12/12 11:37:04;;;;;;;;;;;21.20;34.40;;;;;;5047767;28;20019;-70
2022/12/12 11:39:33;;;;;;;;;;;21.30;34.40;;;;;;5050416;28;19928;-69
2022/12/12 11:44:43;;;;;;;;;;;21.40;34.30;;;;;;5103296;27;19957;-69
2022/12/12 11:47:25;;;;;;;;;;;21.40;34.10;;;;;;5107184;28;19943;-70
2022/12/12 11:49:52;;;;;;;;;;;21.50;33.80;;;;;;5104494;28;20084;-68
2022/12/12 11:52:18;;;;;;;;;;;21.60;34.30;;;;;;5134812;27;20027;-66
2022/12/12 11:54:44;;;;;;;;;;;21.70;33.40;;;;;;5102776;27;19923;-68
2022/12/12 11:57:13;;;;;;;;;;;21.80;33.40;;;;;;5102903;28;19924;-68
2022/12/12 12:02:33;;;;;;;;;;;22.30;32.80;;;;;;5063137;28;19920;-70
2022/12/12 12:05:19;;;;;;;;;;;22.60;32.40;;;;;;5066388;28;19925;-71
2022/12/12 12:07:54;;;;;;;;;;;22.80;32.20;;;;;;5052860;28;20047;-67
2022/12/12 12:10:28;;;;;;;;;;;22.90;32.00;;;;;;5070698;28;20127;-68
2022/12/12 12:13:00;;;;;;;;;;;22.90;32.00;;;;;;5060105;28;20556;-71
2022/12/12 12:23:54;;;;;;;;;;;22.60;32.20;;;;;;5104579;27;19920;-70
2022/12/12 12:29:23;;;;;;;;;;;22.30;32.60;;;;;;5090188;27;19920;-69
2022/12/12 12:42:51;;;;;;;;;;;23.80;31.70;;;;;;5071438;27;19924;-71
2022/12/12 12:45:23;;;;;;;;;;;24.50;31.00;;;;;;5072307;28;20315;-68
2022/12/12 12:47:54;;;;;;;;;;;24.80;30.70;;;;;;5068917;28;19931;-67
2022/12/12 12:50:40;;;;;;;;;;;25.20;30.50;;;;;;5071320;28;20615;-67
2022/12/12 12:53:24;;;;;;;;;;;25.60;30.00;;;;;;5072569;28;20156;-71
2022/12/12 12:55:52;;;;;;;;;;;25.90;29.80;;;;;;5102645;28;19924;-68
2022/12/12 12:58:20;;;;;;;;;;;26.10;29.50;;;;;;5066921;28;19928;-68
2022/12/12 13:00:50;;;;;;;;;;;26.10;29.50;;;;;;5071368;28;20227;-66
2022/12/12 13:03:18;;;;;;;;;;;26.20;29.60;;;;;;5073336;28;20331;-67
2022/12/12 13:05:48;;;;;;;;;;;26.20;29.40;;;;;;5074695;28;20183;-69
2022/12/12 13:08:34;;;;;;;;;;;26.20;29.40;;;;;;5077628;28;20051;-68
2022/12/12 13:11:05;;;;;;;;;;;26.20;29.50;;;;;;5074611;28;20013;-70
2022/12/12 13:13:33;;;;;;;;;;;26.30;29.50;;;;;;5103082;27;19921;-72
2022/12/12 13:16:00;;;;;;;;;;;26.40;29.40;;;;;;5105078;27;19924;-72
2022/12/12 13:18:27;;;;;;;;;;;26.50;29.40;;;;;;5069106;28;20372;-70
2022/12/12 13:20:57;;;;;;;;;;;26.70;29.30;;;;;;5070096;28;20049;-69
2022/12/12 13:23:45;;;;;;;;;;;26.90;29.30;;;;;;5069650;28;20250;-73
2022/12/12 13:26:31;;;;;;;;;;;26.80;29.20;;;;;;5068540;28;19998;-70
2022/12/12 13:31:45;;;;;;;;;;;26.70;29.40;;;;;;5068900;27;19923;-71
2022/12/12 13:34:13;;;;;;;;;;;26.70;29.40;;;;;;5059997;28;20051;-77
2022/12/12 13:36:41;;;;;;;;;;;26.60;29.40;;;;;;5052114;28;19929;-74
2022/12/12 13:39:07;;;;;;;;;;;26.60;29.40;;;;;;5067175;28;20003;-68
2022/12/12 13:41:53;;;;;;;;;;;26.50;29.40;;;;;;5052761;28;19925;-69
2022/12/12 13:44:38;;;;;;;;;;;26.40;29.60;;;;;;5090894;28;19932;-71
2022/12/12 13:47:10;;;;;;;;;;;26.30;29.60;;;;;;5081919;28;19999;-71
2022/12/12 13:49:53;;;;;;;;;;;26.30;29.70;;;;;;5051564;28;20200;-68
2022/12/12 13:52:20;;;;;;;;;;;26.20;29.70;;;;;;5045033;28;19925;-69
2022/12/12 13:54:46;;;;;;;;;;;26.10;29.80;;;;;;5047032;28;19955;-72
2022/12/12 13:57:13;;;;;;;;;;;26.10;29.90;;;;;;5046096;28;20494;-70
2022/12/12 13:59:58;;;;;;;;;;;26.00;29.80;;;;;;5068264;28;19971;-67
2022/12/12 14:05:09;;;;;;;;;;;25.50;30.10;;;;;;5075376;27;20104;-75
2022/12/12 14:07:35;;;;;;;;;;;25.50;30.50;;;;;;5050675;28;19933;-65
2022/12/12 14:10:13;;;;;;;;;;;25.30;30.40;;;;;;5054761;28;19928;-76
2022/12/12 14:12:39;;;;;;;;;;;25.20;30.30;;;;;;5060147;28;20097;-76
2022/12/12 14:15:06;;;;;;;;;;;25.10;30.40;;;;;;5058224;28;20227;-73
2022/12/12 14:17:33;;;;;;;;;;;24.90;30.50;;;;;;5059154;28;19920;-75
2022/12/12 14:19:59;;;;;;;;;;;25.00;30.70;;;;;;5055917;28;20495;-70
2022/12/12 14:22:25;;;;;;;;;;;24.70;30.80;;;;;;5070764;28;20128;-71
2022/12/12 14:25:02;;;;;;;;;;;24.70;30.90;;;;;;5073052;28;19925;-66
2022/12/12 14:27:48;;;;;;;;;;;24.90;30.80;;;;;;5064106;28;20335;-70
2022/12/12 14:30:33;;;;;;;;;;;25.10;30.50;;;;;;5059365;28;20025;-70
2022/12/12 14:33:06;;;;;;;;;;;25.40;30.00;;;;;;5057569;28;19920;-69
2022/12/12 14:35:42;;;;;;;;;;;25.50;29.90;;;;;;5059940;28;20015;-69
2022/12/12 14:40:48;;;;;;;;;;;25.70;30.00;;;;;;5111849;27;1855899;-68
2022/12/12 14:45:58;;;;;;;;;;;25.70;29.40;;;;;;5072850;28;19920;-69
2022/12/12 14:48:26;;;;;;;;;;;25.40;29.40;;;;;;5080528;28;20287;-69
2022/12/12 14:53:39;;;;;;;;;;;25.50;29.90;;;;;;5060292;27;1862696;-69
2022/12/12 14:56:08;;;;;;;;;;;25.90;29.80;;;;;;5100930;28;20272;-71
2022/12/12 14:58:35;;;;;;;;;;;26.10;29.60;;;;;;5104820;28;20132;-72
2022/12/12 15:01:02;;;;;;;;;;;26.30;29.40;;;;;;5089377;28;20383;-69
2022/12/12 15:03:30;;;;;;;;;;;26.30;29.30;;;;;;5099921;28;19935;-70
2022/12/12 15:06:15;;;;;;;;;;;26.30;29.30;;;;;;5095385;28;20045;-70
2022/12/12 15:08:41;;;;;;;;;;;26.20;29.30;;;;;;5114359;27;20290;-71
2022/12/12 15:11:12;;;;;;;;;;;26.00;29.40;;;;;;5106338;28;19920;-69
2022/12/12 15:13:37;;;;;;;;;;;25.80;29.70;;;;;;5099107;28;19919;-69
2022/12/12 15:16:03;;;;;;;;;;;25.50;29.80;;;;;;5096150;28;19920;-72
2022/12/12 15:18:30;;;;;;;;;;;25.20;29.90;;;;;;5097240;28;20010;-69
2022/12/12 15:20:56;;;;;;;;;;;24.90;30.90;;;;;;5118621;28;19919;-70
2022/12/12 15:23:22;;;;;;;;;;;24.60;30.50;;;;;;5092966;28;19927;-70
2022/12/12 15:25:53;;;;;;;;;;;24.30;30.70;;;;;;5106268;28;19919;-71
2022/12/12 15:28:19;;;;;;;;;;;24.10;31.10;;;;;;5105254;28;19923;-70
2022/12/12 15:30:46;;;;;;;;;;;23.70;31.00;;;;;;5103801;28;19928;-71
2022/12/12 15:33:16;;;;;;;;;;;23.30;31.10;;;;;;5083863;28;20696;-72
2022/12/12 15:35:49;;;;;;;;;;;22.80;31.50;;;;;;5089139;28;19931;-73
2022/12/12 15:38:15;;;;;;;;;;;22.40;31.90;;;;;;5085279;28;19920;-73
2022/12/12 15:40:42;;;;;;;;;;;22.10;32.20;;;;;;5085738;28;20611;-71
2022/12/12 15:43:13;;;;;;;;;;;21.80;32.60;;;;;;5088638;28;19927;-73
2022/12/12 15:45:41;;;;;;;;;;;21.60;32.90;;;;;;5109215;28;19926;-73
2022/12/12 15:48:12;;;;;;;;;;;21.30;33.10;;;;;;5087849;28;19923;-74
2022/12/12 15:53:24;;;;;;;;;;;20.80;33.70;;;;;;5097549;27;1971826;-64
2022/12/12 15:55:53;;;;;;;;;;;20.70;33.90;;;;;;5148345;27;20426;-70
2022/12/12 15:58:20;;;;;;;;;;;20.90;33.70;;;;;;5147085;27;19919;-70
2022/12/12 16:00:48;;;;;;;;;;;20.70;33.40;;;;;;5150061;27;19925;-70
2022/12/12 16:06:11;;;;;;;;;;;20.80;33.20;;;;;;5125637;27;1857140;-70
2022/12/12 16:08:38;;;;;;;;;;;21.00;33.00;;;;;;5152273;27;19919;-70
2022/12/12 16:11:05;;;;;;;;;;;21.10;32.90;;;;;;5156198;27;19926;-70